sensor_id;sensor_type;location;lat;lon;timestamp;P1;durP1;ratioP1;P2;durP2;ratioP2
35558;SDS011;21661;50.794;-1.066;2022-09-09T00:00:31;11.45;;;4.18;;
35558;SDS011;21661;50.794;-1.066;2022-09-09T00:08:41;14.00;;;3.50;;
35558;SDS011;21661;50.794;-1.066;2022-09-09T00:11:17;11.40;;;2.60;;
35558;SDS011;21661;50.794;-1.066;2022-09-09T00:13:52;10.80;;;3.20;;
35558;SDS011;21661;50.794;-1.066;2022-09-09T00:16:24;12.63;;;3.30;;
35558;SDS011;21661;50.794;-1.066;2022-09-09T00:18:56;9.48;;;3.22;;
35558;SDS011;21661;50.794;-1.066;2022-09-09T00:21:30;10.20;;;3.40;;
35558;SDS011;21661;50.794;-1.066;2022-09-09T00:24:17;16.33;;;3.58;;
35558;SDS011;21661;50.794;-1.066;2022-09-09T00:26:51;7.03;;;3.33;;
35558;SDS011;21661;50.794;-1.066;2022-09-09T00:29:33;8.85;;;3.92;;
35558;SDS011;21661;50.794;-1.066;2022-09-09T00:32:04;12.77;;;3.05;;
35558;SDS011;21661;50.794;-1.066;2022-09-09T00:34:47;5.60;;;2.77;;
35558;SDS011;21661;50.794;-1.066;2022-09-09T00:37:19;8.20;;;3.08;;
35558;SDS011;21661;50.794;-1.066;2022-09-09T00:39:46;9.82;;;3.22;;
35558;SDS011;21661;50.794;-1.066;2022-09-09T00:58:34;8.98;;;3.10;;
35558;SDS011;21661;50.794;-1.066;2022-09-09T01:03:35;10.98;;;3.20;;
35558;SDS011;21661;50.794;-1.066;2022-09-09T01:17:01;7.53;;;2.72;;
35558;SDS011;21661;50.794;-1.066;2022-09-09T01:25:20;8.43;;;4.28;;
35558;SDS011;21661;50.794;-1.066;2022-09-09T01:28:05;8.43;;;3.67;;
35558;SDS011;21661;50.794;-1.066;2022-09-09T01:30:37;7.50;;;3.43;;
35558;SDS011;21661;50.794;-1.066;2022-09-09T01:33:05;7.68;;;3.50;;
35558;SDS011;21661;50.794;-1.066;2022-09-09T01:38:27;7.93;;;3.65;;
35558;SDS011;21661;50.794;-1.066;2022-09-09T01:40:53;9.13;;;3.67;;
35558;SDS011;21661;50.794;-1.066;2022-09-09T01:43:20;10.82;;;3.38;;
35558;SDS011;21661;50.794;-1.066;2022-09-09T01:45:47;8.85;;;3.63;;
35558;SDS011;21661;50.794;-1.066;2022-09-09T01:48:16;7.40;;;3.95;;
35558;SDS011;21661;50.794;-1.066;2022-09-09T01:50:44;13.18;;;4.00;;
35558;SDS011;21661;50.794;-1.066;2022-09-09T01:53:09;8.30;;;4.15;;
35558;SDS011;21661;50.794;-1.066;2022-09-09T01:55:39;9.18;;;3.58;;
35558;SDS011;21661;50.794;-1.066;2022-09-09T02:00:40;11.00;;;3.97;;
35558;SDS011;21661;50.794;-1.066;2022-09-09T02:03:22;12.85;;;3.72;;
35558;SDS011;21661;50.794;-1.066;2022-09-09T02:08:48;8.88;;;4.00;;
35558;SDS011;21661;50.794;-1.066;2022-09-09T02:11:18;9.32;;;3.70;;
35558;SDS011;21661;50.794;-1.066;2022-09-09T02:13:47;10.18;;;3.70;;
35558;SDS011;21661;50.794;-1.066;2022-09-09T02:16:26;7.85;;;3.58;;
35558;SDS011;21661;50.794;-1.066;2022-09-09T02:21:28;8.73;;;3.10;;
35558;SDS011;21661;50.794;-1.066;2022-09-09T02:23:56;7.60;;;2.78;;
35558;SDS011;21661;50.794;-1.066;2022-09-09T02:26:24;8.00;;;2.97;;
35558;SDS011;21661;50.794;-1.066;2022-09-09T02:28:51;9.95;;;3.10;;
35558;SDS011;21661;50.794;-1.066;2022-09-09T02:31:21;9.43;;;3.63;;
35558;SDS011;21661;50.794;-1.066;2022-09-09T02:33:51;8.32;;;3.25;;
35558;SDS011;21661;50.794;-1.066;2022-09-09T02:36:22;8.57;;;3.58;;
35558;SDS011;21661;50.794;-1.066;2022-09-09T02:38:51;8.52;;;3.25;;
35558;SDS011;21661;50.794;-1.066;2022-09-09T02:41:31;9.48;;;3.40;;
35558;SDS011;21661;50.794;-1.066;2022-09-09T02:43:58;8.50;;;4.18;;
35558;SDS011;21661;50.794;-1.066;2022-09-09T02:46:27;8.35;;;3.42;;
35558;SDS011;21661;50.794;-1.066;2022-09-09T02:51:52;6.60;;;3.63;;
35558;SDS011;21661;50.794;-1.066;2022-09-09T02:54:33;8.13;;;3.78;;
35558;SDS011;21661;50.794;-1.066;2022-09-09T02:57:11;8.55;;;4.10;;
35558;SDS011;21661;50.794;-1.066;2022-09-09T02:59:48;11.23;;;4.25;;
35558;SDS011;21661;50.794;-1.066;2022-09-09T03:02:15;8.23;;;4.70;;
35558;SDS011;21661;50.794;-1.066;2022-09-09T03:04:41;9.80;;;5.00;;
35558;SDS011;21661;50.794;-1.066;2022-09-09T03:07:09;10.48;;;5.15;;
35558;SDS011;21661;50.794;-1.066;2022-09-09T03:09:35;6.72;;;4.20;;
35558;SDS011;21661;50.794;-1.066;2022-09-09T03:12:01;6.13;;;4.20;;
35558;SDS011;21661;50.794;-1.066;2022-09-09T03:14:29;9.02;;;4.90;;
35558;SDS011;21661;50.794;-1.066;2022-09-09T03:16:55;9.68;;;5.15;;
35558;SDS011;21661;50.794;-1.066;2022-09-09T03:19:23;9.80;;;5.35;;
35558;SDS011;21661;50.794;-1.066;2022-09-09T03:21:49;10.60;;;5.20;;
35558;SDS011;21661;50.794;-1.066;2022-09-09T03:24:15;11.27;;;5.90;;
35558;SDS011;21661;50.794;-1.066;2022-09-09T03:26:41;8.65;;;5.30;;
35558;SDS011;21661;50.794;-1.066;2022-09-09T03:29:10;8.63;;;6.20;;
35558;SDS011;21661;50.794;-1.066;2022-09-09T03:31:37;11.15;;;6.97;;
35558;SDS011;21661;50.794;-1.066;2022-09-09T03:34:03;12.43;;;6.72;;
35558;SDS011;21661;50.794;-1.066;2022-09-09T03:36:29;12.55;;;6.65;;
35558;SDS011;21661;50.794;-1.066;2022-09-09T03:38:55;10.85;;;6.50;;
35558;SDS011;21661;50.794;-1.066;2022-09-09T03:41:21;9.88;;;7.32;;
35558;SDS011;21661;50.794;-1.066;2022-09-09T03:43:52;13.73;;;6.15;;
35558;SDS011;21661;50.794;-1.066;2022-09-09T03:46:19;11.13;;;6.90;;
35558;SDS011;21661;50.794;-1.066;2022-09-09T03:48:45;12.30;;;5.93;;
35558;SDS011;21661;50.794;-1.066;2022-09-09T03:51:11;11.45;;;4.95;;
35558;SDS011;21661;50.794;-1.066;2022-09-09T03:53:36;10.25;;;5.20;;
35558;SDS011;21661;50.794;-1.066;2022-09-09T03:56:03;8.75;;;4.05;;
35558;SDS011;21661;50.794;-1.066;2022-09-09T03:58:32;8.85;;;4.10;;
35558;SDS011;21661;50.794;-1.066;2022-09-09T04:03:25;6.68;;;2.97;;
35558;SDS011;21661;50.794;-1.066;2022-09-09T04:05:51;5.82;;;2.90;;
35558;SDS011;21661;50.794;-1.066;2022-09-09T04:08:18;7.97;;;2.90;;
35558;SDS011;21661;50.794;-1.066;2022-09-09T04:10:45;4.97;;;2.80;;
35558;SDS011;21661;50.794;-1.066;2022-09-09T04:13:12;9.10;;;2.55;;
35558;SDS011;21661;50.794;-1.066;2022-09-09T04:15:39;6.55;;;3.28;;
35558;SDS011;21661;50.794;-1.066;2022-09-09T04:18:05;7.75;;;2.67;;
35558;SDS011;21661;50.794;-1.066;2022-09-09T04:20:31;5.93;;;2.53;;
35558;SDS011;21661;50.794;-1.066;2022-09-09T04:22:57;8.48;;;2.70;;
35558;SDS011;21661;50.794;-1.066;2022-09-09T04:25:23;8.60;;;2.65;;
35558;SDS011;21661;50.794;-1.066;2022-09-09T04:27:53;9.43;;;2.75;;
35558;SDS011;21661;50.794;-1.066;2022-09-09T04:30:23;8.30;;;2.50;;
35558;SDS011;21661;50.794;-1.066;2022-09-09T04:32:50;5.95;;;2.15;;
35558;SDS011;21661;50.794;-1.066;2022-09-09T04:35:15;6.43;;;2.58;;
35558;SDS011;21661;50.794;-1.066;2022-09-09T04:37:41;4.10;;;2.38;;
35558;SDS011;21661;50.794;-1.066;2022-09-09T04:40:07;7.45;;;2.47;;
35558;SDS011;21661;50.794;-1.066;2022-09-09T04:42:38;7.10;;;2.60;;
35558;SDS011;21661;50.794;-1.066;2022-09-09T04:45:04;6.97;;;2.70;;
35558;SDS011;21661;50.794;-1.066;2022-09-09T04:47:31;5.57;;;2.50;;
35558;SDS011;21661;50.794;-1.066;2022-09-09T04:49:59;8.32;;;3.13;;
35558;SDS011;21661;50.794;-1.066;2022-09-09T04:52:25;8.27;;;2.83;;
35558;SDS011;21661;50.794;-1.066;2022-09-09T04:54:51;7.30;;;2.63;;
35558;SDS011;21661;50.794;-1.066;2022-09-09T04:57:19;7.45;;;3.10;;
35558;SDS011;21661;50.794;-1.066;2022-09-09T04:59:44;9.02;;;2.78;;
35558;SDS011;21661;50.794;-1.066;2022-09-09T05:02:11;4.75;;;2.78;;
35558;SDS011;21661;50.794;-1.066;2022-09-09T05:04:36;10.57;;;3.10;;
35558;SDS011;21661;50.794;-1.066;2022-09-09T05:07:02;7.47;;;2.97;;
35558;SDS011;21661;50.794;-1.066;2022-09-09T05:09:28;8.32;;;3.25;;
35558;SDS011;21661;50.794;-1.066;2022-09-09T05:11:53;8.55;;;3.92;;
35558;SDS011;21661;50.794;-1.066;2022-09-09T05:14:20;7.80;;;3.22;;
35558;SDS011;21661;50.794;-1.066;2022-09-09T05:16:46;8.63;;;3.47;;
35558;SDS011;21661;50.794;-1.066;2022-09-09T05:19:14;5.03;;;3.45;;
35558;SDS011;21661;50.794;-1.066;2022-09-09T05:21:40;6.45;;;3.50;;
35558;SDS011;21661;50.794;-1.066;2022-09-09T05:24:06;8.60;;;3.80;;
35558;SDS011;21661;50.794;-1.066;2022-09-09T05:26:32;9.85;;;3.28;;
35558;SDS011;21661;50.794;-1.066;2022-09-09T05:28:57;11.98;;;4.07;;
35558;SDS011;21661;50.794;-1.066;2022-09-09T05:31:25;6.25;;;3.45;;
35558;SDS011;21661;50.794;-1.066;2022-09-09T05:33:52;9.18;;;4.18;;
35558;SDS011;21661;50.794;-1.066;2022-09-09T05:36:19;9.45;;;3.70;;
35558;SDS011;21661;50.794;-1.066;2022-09-09T05:38:45;6.47;;;4.00;;
35558;SDS011;21661;50.794;-1.066;2022-09-09T05:41:11;8.73;;;4.13;;
35558;SDS011;21661;50.794;-1.066;2022-09-09T05:43:40;9.65;;;4.55;;
35558;SDS011;21661;50.794;-1.066;2022-09-09T05:46:08;7.90;;;4.03;;
35558;SDS011;21661;50.794;-1.066;2022-09-09T05:48:36;7.68;;;4.32;;
35558;SDS011;21661;50.794;-1.066;2022-09-09T05:51:03;7.57;;;4.40;;
35558;SDS011;21661;50.794;-1.066;2022-09-09T05:53:30;10.32;;;4.70;;
35558;SDS011;21661;50.794;-1.066;2022-09-09T05:56:08;10.35;;;4.78;;
35558;SDS011;21661;50.794;-1.066;2022-09-09T05:58:45;7.82;;;4.25;;
35558;SDS011;21661;50.794;-1.066;2022-09-09T06:01:33;11.10;;;5.03;;
35558;SDS011;21661;50.794;-1.066;2022-09-09T06:04:00;8.25;;;5.60;;
35558;SDS011;21661;50.794;-1.066;2022-09-09T06:06:27;11.30;;;5.43;;
35558;SDS011;21661;50.794;-1.066;2022-09-09T06:08:56;9.32;;;5.40;;
35558;SDS011;21661;50.794;-1.066;2022-09-09T06:11:29;10.65;;;5.40;;
35558;SDS011;21661;50.794;-1.066;2022-09-09T06:13:56;14.57;;;5.75;;
35558;SDS011;21661;50.794;-1.066;2022-09-09T06:16:23;9.00;;;5.53;;
35558;SDS011;21661;50.794;-1.066;2022-09-09T06:18:50;9.07;;;5.10;;
35558;SDS011;21661;50.794;-1.066;2022-09-09T06:23:44;13.27;;;5.30;;
35558;SDS011;21661;50.794;-1.066;2022-09-09T06:26:11;8.85;;;5.35;;
35558;SDS011;21661;50.794;-1.066;2022-09-09T06:28:39;12.88;;;6.72;;
35558;SDS011;21661;50.794;-1.066;2022-09-09T06:31:08;12.52;;;6.65;;
35558;SDS011;21661;50.794;-1.066;2022-09-09T06:33:36;15.30;;;7.55;;
35558;SDS011;21661;50.794;-1.066;2022-09-09T06:36:06;12.10;;;6.70;;
35558;SDS011;21661;50.794;-1.066;2022-09-09T06:38:35;12.70;;;6.88;;
35558;SDS011;21661;50.794;-1.066;2022-09-09T06:41:00;10.32;;;7.07;;
35558;SDS011;21661;50.794;-1.066;2022-09-09T06:43:26;12.55;;;7.40;;
35558;SDS011;21661;50.794;-1.066;2022-09-09T06:45:59;11.45;;;7.35;;
35558;SDS011;21661;50.794;-1.066;2022-09-09T06:48:33;10.33;;;7.23;;
35558;SDS011;21661;50.794;-1.066;2022-09-09T06:51:18;15.52;;;8.23;;
35558;SDS011;21661;50.794;-1.066;2022-09-09T06:53:52;13.23;;;7.93;;
35558;SDS011;21661;50.794;-1.066;2022-09-09T06:58:48;13.65;;;7.80;;
35558;SDS011;21661;50.794;-1.066;2022-09-09T07:01:15;14.93;;;8.73;;
35558;SDS011;21661;50.794;-1.066;2022-09-09T07:03:44;13.30;;;8.80;;
35558;SDS011;21661;50.794;-1.066;2022-09-09T07:06:14;13.80;;;7.70;;
35558;SDS011;21661;50.794;-1.066;2022-09-09T07:08:41;13.35;;;8.20;;
35558;SDS011;21661;50.794;-1.066;2022-09-09T07:11:08;14.27;;;7.80;;
35558;SDS011;21661;50.794;-1.066;2022-09-09T07:13:34;15.43;;;7.80;;
35558;SDS011;21661;50.794;-1.066;2022-09-09T07:16:07;12.75;;;7.28;;
35558;SDS011;21661;50.794;-1.066;2022-09-09T07:18:37;12.27;;;7.22;;
35558;SDS011;21661;50.794;-1.066;2022-09-09T07:21:04;11.68;;;6.03;;
35558;SDS011;21661;50.794;-1.066;2022-09-09T07:23:31;10.85;;;5.68;;
35558;SDS011;21661;50.794;-1.066;2022-09-09T07:25:57;10.82;;;5.60;;
35558;SDS011;21661;50.794;-1.066;2022-09-09T07:28:24;8.68;;;4.63;;
35558;SDS011;21661;50.794;-1.066;2022-09-09T07:30:57;8.90;;;4.65;;
35558;SDS011;21661;50.794;-1.066;2022-09-09T07:33:26;10.25;;;5.38;;
35558;SDS011;21661;50.794;-1.066;2022-09-09T07:35:53;10.68;;;5.13;;
35558;SDS011;21661;50.794;-1.066;2022-09-09T07:38:19;7.75;;;4.40;;
35558;SDS011;21661;50.794;-1.066;2022-09-09T07:40:46;9.95;;;4.18;;
35558;SDS011;21661;50.794;-1.066;2022-09-09T07:43:12;7.65;;;4.32;;
35558;SDS011;21661;50.794;-1.066;2022-09-09T07:45:37;8.75;;;3.30;;
35558;SDS011;21661;50.794;-1.066;2022-09-09T07:48:03;9.35;;;3.30;;
35558;SDS011;21661;50.794;-1.066;2022-09-09T07:50:30;7.10;;;3.20;;
35558;SDS011;21661;50.794;-1.066;2022-09-09T07:52:56;10.77;;;3.20;;
35558;SDS011;21661;50.794;-1.066;2022-09-09T07:55:22;6.82;;;2.45;;
35558;SDS011;21661;50.794;-1.066;2022-09-09T07:57:52;8.38;;;3.03;;
35558;SDS011;21661;50.794;-1.066;2022-09-09T08:00:18;9.27;;;2.65;;
35558;SDS011;21661;50.794;-1.066;2022-09-09T08:02:47;5.72;;;2.28;;
35558;SDS011;21661;50.794;-1.066;2022-09-09T08:05:13;4.68;;;2.10;;
35558;SDS011;21661;50.794;-1.066;2022-09-09T08:07:39;5.57;;;2.13;;
35558;SDS011;21661;50.794;-1.066;2022-09-09T08:10:05;7.43;;;2.70;;
35558;SDS011;21661;50.794;-1.066;2022-09-09T08:12:31;7.72;;;1.88;;
35558;SDS011;21661;50.794;-1.066;2022-09-09T08:14:57;9.25;;;3.15;;
35558;SDS011;21661;50.794;-1.066;2022-09-09T08:17:22;4.22;;;2.05;;
35558;SDS011;21661;50.794;-1.066;2022-09-09T08:19:48;7.93;;;2.03;;
35558;SDS011;21661;50.794;-1.066;2022-09-09T08:22:14;8.65;;;2.17;;
35558;SDS011;21661;50.794;-1.066;2022-09-09T08:24:39;7.72;;;2.80;;
35558;SDS011;21661;50.794;-1.066;2022-09-09T08:27:06;5.80;;;1.90;;
35558;SDS011;21661;50.794;-1.066;2022-09-09T08:29:31;5.85;;;1.90;;
35558;SDS011;21661;50.794;-1.066;2022-09-09T08:31:57;5.07;;;1.80;;
35558;SDS011;21661;50.794;-1.066;2022-09-09T08:34:24;4.05;;;1.60;;
35558;SDS011;21661;50.794;-1.066;2022-09-09T08:36:51;7.20;;;1.80;;
35558;SDS011;21661;50.794;-1.066;2022-09-09T08:39:19;6.43;;;2.38;;
35558;SDS011;21661;50.794;-1.066;2022-09-09T08:41:51;4.80;;;1.85;;
35558;SDS011;21661;50.794;-1.066;2022-09-09T08:52:46;5.85;;;1.67;;
35558;SDS011;21661;50.794;-1.066;2022-09-09T08:57:47;6.90;;;1.80;;
35558;SDS011;21661;50.794;-1.066;2022-09-09T09:00:19;3.72;;;1.80;;
35558;SDS011;21661;50.794;-1.066;2022-09-09T09:08:25;5.28;;;1.48;;
35558;SDS011;21661;50.794;-1.066;2022-09-09T09:10:58;4.63;;;1.48;;
35558;SDS011;21661;50.794;-1.066;2022-09-09T09:13:32;4.38;;;1.67;;
35558;SDS011;21661;50.794;-1.066;2022-09-09T09:19:08;5.68;;;1.63;;
35558;SDS011;21661;50.794;-1.066;2022-09-09T09:24:09;4.45;;;1.20;;
35558;SDS011;21661;50.794;-1.066;2022-09-09T09:26:43;3.75;;;1.40;;
35558;SDS011;21661;50.794;-1.066;2022-09-09T09:29:16;3.03;;;1.30;;
35558;SDS011;21661;50.794;-1.066;2022-09-09T09:31:48;3.92;;;1.40;;
35558;SDS011;21661;50.794;-1.066;2022-09-09T09:34:21;3.28;;;1.08;;
35558;SDS011;21661;50.794;-1.066;2022-09-09T09:39:23;4.57;;;1.20;;
35558;SDS011;21661;50.794;-1.066;2022-09-09T09:41:49;6.15;;;1.60;;
35558;SDS011;21661;50.794;-1.066;2022-09-09T09:47:05;6.50;;;2.03;;
35558;SDS011;21661;50.794;-1.066;2022-09-09T09:49:38;6.75;;;1.75;;
35558;SDS011;21661;50.794;-1.066;2022-09-09T09:52:04;4.97;;;1.50;;
35558;SDS011;21661;50.794;-1.066;2022-09-09T09:54:41;5.57;;;1.70;;
35558;SDS011;21661;50.794;-1.066;2022-09-09T09:57:16;4.10;;;1.27;;
35558;SDS011;21661;50.794;-1.066;2022-09-09T09:59:43;5.28;;;1.40;;
35558;SDS011;21661;50.794;-1.066;2022-09-09T10:02:17;10.45;;;1.77;;
35558;SDS011;21661;50.794;-1.066;2022-09-09T10:04:45;3.42;;;1.50;;
35558;SDS011;21661;50.794;-1.066;2022-09-09T10:07:12;4.82;;;1.50;;
35558;SDS011;21661;50.794;-1.066;2022-09-09T10:09:42;4.85;;;1.65;;
35558;SDS011;21661;50.794;-1.066;2022-09-09T10:22:47;6.68;;;1.92;;
35558;SDS011;21661;50.794;-1.066;2022-09-09T10:31:21;5.95;;;1.85;;
35558;SDS011;21661;50.794;-1.066;2022-09-09T10:34:13;8.40;;;1.88;;
35558;SDS011;21661;50.794;-1.066;2022-09-09T10:36:43;4.43;;;1.33;;
35558;SDS011;21661;50.794;-1.066;2022-09-09T10:50:22;5.90;;;1.48;;
35558;SDS011;21661;50.794;-1.066;2022-09-09T10:53:15;4.75;;;1.30;;
35558;SDS011;21661;50.794;-1.066;2022-09-09T10:55:51;2.90;;;1.25;;
35558;SDS011;21661;50.794;-1.066;2022-09-09T10:58:29;5.20;;;1.60;;
35558;SDS011;21661;50.794;-1.066;2022-09-09T11:01:49;4.63;;;1.67;;
35558;SDS011;21661;50.794;-1.066;2022-09-09T11:04:21;4.55;;;1.80;;
35558;SDS011;21661;50.794;-1.066;2022-09-09T11:06:52;7.22;;;1.98;;
35558;SDS011;21661;50.794;-1.066;2022-09-09T11:09:30;5.75;;;1.83;;
35558;SDS011;21661;50.794;-1.066;2022-09-09T11:12:01;3.92;;;1.55;;
35558;SDS011;21661;50.794;-1.066;2022-09-09T11:14:32;4.40;;;1.55;;
35558;SDS011;21661;50.794;-1.066;2022-09-09T11:17:26;9.18;;;1.75;;
35558;SDS011;21661;50.794;-1.066;2022-09-09T11:20:12;4.28;;;1.65;;
35558;SDS011;21661;50.794;-1.066;2022-09-09T11:22:50;5.15;;;1.50;;
35558;SDS011;21661;50.794;-1.066;2022-09-09T11:25:40;3.77;;;1.20;;
35558;SDS011;21661;50.794;-1.066;2022-09-09T11:28:23;7.70;;;1.60;;
35558;SDS011;21661;50.794;-1.066;2022-09-09T11:44:39;7.05;;;2.15;;
35558;SDS011;21661;50.794;-1.066;2022-09-09T11:47:22;6.82;;;2.13;;
35558;SDS011;21661;50.794;-1.066;2022-09-09T11:49:54;4.45;;;2.00;;
35558;SDS011;21661;50.794;-1.066;2022-09-09T11:57:24;3.80;;;1.83;;
35558;SDS011;21661;50.794;-1.066;2022-09-09T11:59:55;5.03;;;1.80;;
35558;SDS011;21661;50.794;-1.066;2022-09-09T12:07:41;5.05;;;1.67;;
35558;SDS011;21661;50.794;-1.066;2022-09-09T12:13:15;3.40;;;1.60;;
35558;SDS011;21661;50.794;-1.066;2022-09-09T12:15:48;4.03;;;1.83;;
35558;SDS011;21661;50.794;-1.066;2022-09-09T12:18:21;5.03;;;1.70;;
35558;SDS011;21661;50.794;-1.066;2022-09-09T12:21:00;4.20;;;1.55;;
35558;SDS011;21661;50.794;-1.066;2022-09-09T12:26:34;2.47;;;1.00;;
35558;SDS011;21661;50.794;-1.066;2022-09-09T12:29:05;2.85;;;1.17;;
35558;SDS011;21661;50.794;-1.066;2022-09-09T12:31:46;1.73;;;1.10;;
35558;SDS011;21661;50.794;-1.066;2022-09-09T12:37:04;2.90;;;1.30;;
35558;SDS011;21661;50.794;-1.066;2022-09-09T12:39:51;2.80;;;1.13;;
35558;SDS011;21661;50.794;-1.066;2022-09-09T12:42:21;2.00;;;1.20;;
35558;SDS011;21661;50.794;-1.066;2022-09-09T12:44:51;1.73;;;1.20;;
35558;SDS011;21661;50.794;-1.066;2022-09-09T12:47:17;3.40;;;1.30;;
35558;SDS011;21661;50.794;-1.066;2022-09-09T12:49:46;3.08;;;1.08;;
35558;SDS011;21661;50.794;-1.066;2022-09-09T12:54:45;3.60;;;1.10;;
35558;SDS011;21661;50.794;-1.066;2022-09-09T12:57:12;3.67;;;1.10;;
35558;SDS011;21661;50.794;-1.066;2022-09-09T12:59:40;3.72;;;1.13;;
35558;SDS011;21661;50.794;-1.066;2022-09-09T13:02:11;1.83;;;0.82;;
35558;SDS011;21661;50.794;-1.066;2022-09-09T13:04:41;3.13;;;1.25;;
35558;SDS011;21661;50.794;-1.066;2022-09-09T13:07:07;4.75;;;1.33;;
35558;SDS011;21661;50.794;-1.066;2022-09-09T13:09:35;2.83;;;1.20;;
35558;SDS011;21661;50.794;-1.066;2022-09-09T13:12:00;1.45;;;1.00;;
35558;SDS011;21661;50.794;-1.066;2022-09-09T13:14:31;5.00;;;1.20;;
35558;SDS011;21661;50.794;-1.066;2022-09-09T13:17:03;4.05;;;1.40;;
35558;SDS011;21661;50.794;-1.066;2022-09-09T13:19:32;4.43;;;1.30;;
35558;SDS011;21661;50.794;-1.066;2022-09-09T13:22:14;4.25;;;1.23;;
35558;SDS011;21661;50.794;-1.066;2022-09-09T13:25:21;5.32;;;1.10;;
35558;SDS011;21661;50.794;-1.066;2022-09-09T13:28:02;7.20;;;0.82;;
35558;SDS011;21661;50.794;-1.066;2022-09-09T13:30:33;2.10;;;0.60;;
35558;SDS011;21661;50.794;-1.066;2022-09-09T13:35:31;3.50;;;1.08;;
35558;SDS011;21661;50.794;-1.066;2022-09-09T13:37:59;4.35;;;1.50;;
35558;SDS011;21661;50.794;-1.066;2022-09-09T13:40:32;6.18;;;1.42;;
35558;SDS011;21661;50.794;-1.066;2022-09-09T13:42:59;2.45;;;1.20;;
35558;SDS011;21661;50.794;-1.066;2022-09-09T13:45:25;4.97;;;1.77;;
35558;SDS011;21661;50.794;-1.066;2022-09-09T13:47:54;5.80;;;1.60;;
35558;SDS011;21661;50.794;-1.066;2022-09-09T13:52:47;3.90;;;1.42;;
35558;SDS011;21661;50.794;-1.066;2022-09-09T13:55:15;2.60;;;1.25;;
35558;SDS011;21661;50.794;-1.066;2022-09-09T13:57:49;6.03;;;2.05;;
35558;SDS011;21661;50.794;-1.066;2022-09-09T14:00:29;3.33;;;1.73;;
35558;SDS011;21661;50.794;-1.066;2022-09-09T14:02:56;2.55;;;1.40;;
35558;SDS011;21661;50.794;-1.066;2022-09-09T14:05:23;4.47;;;2.08;;
35558;SDS011;21661;50.794;-1.066;2022-09-09T14:07:50;3.03;;;1.35;;
35558;SDS011;21661;50.794;-1.066;2022-09-09T14:10:15;3.28;;;1.25;;
35558;SDS011;21661;50.794;-1.066;2022-09-09T14:12:41;5.07;;;1.77;;
35558;SDS011;21661;50.794;-1.066;2022-09-09T14:15:08;3.47;;;1.52;;
35558;SDS011;21661;50.794;-1.066;2022-09-09T14:17:35;2.70;;;1.65;;
35558;SDS011;21661;50.794;-1.066;2022-09-09T14:20:04;6.30;;;1.50;;
35558;SDS011;21661;50.794;-1.066;2022-09-09T14:22:35;3.40;;;1.10;;
35558;SDS011;21661;50.794;-1.066;2022-09-09T14:25:01;5.07;;;1.50;;
35558;SDS011;21661;50.794;-1.066;2022-09-09T14:27:27;4.88;;;1.75;;
35558;SDS011;21661;50.794;-1.066;2022-09-09T14:29:53;6.72;;;1.48;;
35558;SDS011;21661;50.794;-1.066;2022-09-09T14:32:19;3.15;;;1.33;;
35558;SDS011;21661;50.794;-1.066;2022-09-09T14:34:46;2.95;;;1.30;;
35558;SDS011;21661;50.794;-1.066;2022-09-09T14:37:14;5.32;;;1.40;;
35558;SDS011;21661;50.794;-1.066;2022-09-09T14:39:41;5.07;;;1.50;;
35558;SDS011;21661;50.794;-1.066;2022-09-09T14:42:08;4.97;;;1.60;;
35558;SDS011;21661;50.794;-1.066;2022-09-09T14:44:36;3.53;;;1.20;;
35558;SDS011;21661;50.794;-1.066;2022-09-09T14:47:03;5.63;;;1.23;;
35558;SDS011;21661;50.794;-1.066;2022-09-09T14:49:29;4.05;;;1.35;;
35558;SDS011;21661;50.794;-1.066;2022-09-09T14:51:56;6.10;;;1.58;;
35558;SDS011;21661;50.794;-1.066;2022-09-09T14:54:21;7.25;;;1.67;;
35558;SDS011;21661;50.794;-1.066;2022-09-09T14:56:48;3.35;;;1.50;;
35558;SDS011;21661;50.794;-1.066;2022-09-09T14:59:14;5.43;;;1.75;;
35558;SDS011;21661;50.794;-1.066;2022-09-09T15:01:39;5.43;;;1.75;;
35558;SDS011;21661;50.794;-1.066;2022-09-09T15:04:06;7.82;;;1.80;;
35558;SDS011;21661;50.794;-1.066;2022-09-09T15:06:33;3.58;;;1.42;;
35558;SDS011;21661;50.794;-1.066;2022-09-09T15:09:04;8.98;;;1.80;;
35558;SDS011;21661;50.794;-1.066;2022-09-09T15:11:31;7.18;;;1.52;;
35558;SDS011;21661;50.794;-1.066;2022-09-09T15:14:02;6.43;;;1.77;;
35558;SDS011;21661;50.794;-1.066;2022-09-09T15:16:28;4.68;;;1.70;;
35558;SDS011;21661;50.794;-1.066;2022-09-09T15:18:55;6.28;;;2.10;;
35558;SDS011;21661;50.794;-1.066;2022-09-09T15:21:22;5.35;;;1.70;;
35558;SDS011;21661;50.794;-1.066;2022-09-09T15:23:49;5.80;;;2.10;;
35558;SDS011;21661;50.794;-1.066;2022-09-09T15:26:16;4.03;;;1.92;;
35558;SDS011;21661;50.794;-1.066;2022-09-09T15:28:43;6.60;;;1.65;;
35558;SDS011;21661;50.794;-1.066;2022-09-09T15:31:11;4.00;;;1.55;;
35558;SDS011;21661;50.794;-1.066;2022-09-09T15:33:40;5.63;;;1.60;;
35558;SDS011;21661;50.794;-1.066;2022-09-09T15:36:12;9.02;;;1.80;;
35558;SDS011;21661;50.794;-1.066;2022-09-09T15:38:39;8.57;;;2.45;;
35558;SDS011;21661;50.794;-1.066;2022-09-09T15:41:05;7.53;;;1.77;;
35558;SDS011;21661;50.794;-1.066;2022-09-09T15:43:31;8.60;;;2.20;;
35558;SDS011;21661;50.794;-1.066;2022-09-09T15:45:58;5.00;;;1.58;;
35558;SDS011;21661;50.794;-1.066;2022-09-09T15:48:52;7.20;;;2.10;;
35558;SDS011;21661;50.794;-1.066;2022-09-09T15:51:19;4.88;;;1.75;;
35558;SDS011;21661;50.794;-1.066;2022-09-09T15:53:45;4.95;;;1.90;;
35558;SDS011;21661;50.794;-1.066;2022-09-09T15:56:11;7.43;;;1.92;;
35558;SDS011;21661;50.794;-1.066;2022-09-09T15:58:37;4.40;;;1.60;;
35558;SDS011;21661;50.794;-1.066;2022-09-09T16:01:03;7.10;;;1.90;;
35558;SDS011;21661;50.794;-1.066;2022-09-09T16:03:36;8.88;;;1.85;;
35558;SDS011;21661;50.794;-1.066;2022-09-09T16:06:03;5.00;;;2.00;;
35558;SDS011;21661;50.794;-1.066;2022-09-09T16:08:37;5.07;;;1.80;;
35558;SDS011;21661;50.794;-1.066;2022-09-09T16:11:08;6.18;;;2.00;;
35558;SDS011;21661;50.794;-1.066;2022-09-09T16:13:36;5.80;;;2.22;;
35558;SDS011;21661;50.794;-1.066;2022-09-09T16:16:02;6.82;;;2.47;;
35558;SDS011;21661;50.794;-1.066;2022-09-09T16:18:32;7.45;;;2.28;;
35558;SDS011;21661;50.794;-1.066;2022-09-09T16:21:00;8.18;;;2.40;;
35558;SDS011;21661;50.794;-1.066;2022-09-09T16:23:26;6.35;;;2.70;;
35558;SDS011;21661;50.794;-1.066;2022-09-09T16:25:55;6.20;;;2.22;;
35558;SDS011;21661;50.794;-1.066;2022-09-09T16:28:21;9.82;;;2.53;;
35558;SDS011;21661;50.794;-1.066;2022-09-09T16:30:47;8.30;;;2.50;;
35558;SDS011;21661;50.794;-1.066;2022-09-09T16:33:14;5.85;;;2.45;;
35558;SDS011;21661;50.794;-1.066;2022-09-09T16:35:41;7.90;;;2.40;;
35558;SDS011;21661;50.794;-1.066;2022-09-09T16:38:07;7.65;;;2.22;;
35558;SDS011;21661;50.794;-1.066;2022-09-09T16:40:36;7.68;;;2.13;;
35558;SDS011;21661;50.794;-1.066;2022-09-09T16:43:03;6.38;;;2.13;;
35558;SDS011;21661;50.794;-1.066;2022-09-09T16:45:30;4.30;;;1.75;;
35558;SDS011;21661;50.794;-1.066;2022-09-09T16:47:57;5.55;;;2.15;;
35558;SDS011;21661;50.794;-1.066;2022-09-09T16:50:23;8.25;;;2.10;;
35558;SDS011;21661;50.794;-1.066;2022-09-09T16:52:50;5.65;;;1.95;;
35558;SDS011;21661;50.794;-1.066;2022-09-09T16:55:17;4.55;;;2.20;;
35558;SDS011;21661;50.794;-1.066;2022-09-09T16:57:45;4.70;;;1.88;;
35558;SDS011;21661;50.794;-1.066;2022-09-09T17:00:13;5.13;;;1.60;;
35558;SDS011;21661;50.794;-1.066;2022-09-09T17:02:39;5.65;;;2.15;;
35558;SDS011;21661;50.794;-1.066;2022-09-09T17:05:05;5.97;;;1.95;;
35558;SDS011;21661;50.794;-1.066;2022-09-09T17:07:31;5.07;;;2.28;;
35558;SDS011;21661;50.794;-1.066;2022-09-09T17:09:57;8.18;;;2.33;;
35558;SDS011;21661;50.794;-1.066;2022-09-09T17:12:23;8.25;;;2.30;;
35558;SDS011;21661;50.794;-1.066;2022-09-09T17:14:49;9.00;;;2.20;;
35558;SDS011;21661;50.794;-1.066;2022-09-09T17:17:15;6.93;;;2.90;;
35558;SDS011;21661;50.794;-1.066;2022-09-09T17:19:42;6.13;;;2.70;;
35558;SDS011;21661;50.794;-1.066;2022-09-09T17:22:08;5.93;;;2.15;;
35558;SDS011;21661;50.794;-1.066;2022-09-09T17:24:33;6.70;;;2.30;;